Terminal Aerodrome Forecast
Issued by NWS

Home | Current Version | Previous Version | Text Only | Print | Product List | Glossary On
Versions: 1 2 3 4 5 6 7 8 9 10 11 12 13 14 15 16
000
FTUS44 KMAF 131100
TAFINK
TAF
KINK 131124Z 1312/1412 12011KT P6SM FEW250
     FM131500 14011G20KT P6SM FEW100 SCT250
     FM140000 13008KT P6SM FEW250=

USA.gov is the U.S. government's official web portal to all federal, state and local government web resources and services.